sensor_id;sensor_type;location;lat;lon;timestamp;temperature;humidity
69084;SHT31;56185;48.526;9.044;2024-03-25T00:00:40;4.56;82.74
69084;SHT31;56185;48.526;9.044;2024-03-25T00:03:05;4.50;82.58
69084;SHT31;56185;48.526;9.044;2024-03-25T00:05:31;4.65;82.81
69084;SHT31;56185;48.526;9.044;2024-03-25T00:07:56;4.62;82.59
69084;SHT31;56185;48.526;9.044;2024-03-25T00:10:21;4.74;82.08
69084;SHT31;56185;48.526;9.044;2024-03-25T00:12:47;4.80;82.82
69084;SHT31;56185;48.526;9.044;2024-03-25T00:15:12;4.74;82.12
69084;SHT31;56185;48.526;9.044;2024-03-25T00:17:38;4.66;81.88
69084;SHT31;56185;48.526;9.044;2024-03-25T00:20:03;4.70;82.64
69084;SHT31;56185;48.526;9.044;2024-03-25T00:22:28;4.76;82.70
69084;SHT31;56185;48.526;9.044;2024-03-25T00:24:54;4.59;82.13
69084;SHT31;56185;48.526;9.044;2024-03-25T00:27:19;4.69;82.75
69084;SHT31;56185;48.526;9.044;2024-03-25T00:29:44;4.76;82.87
69084;SHT31;56185;48.526;9.044;2024-03-25T00:32:10;4.69;82.45
69084;SHT31;56185;48.526;9.044;2024-03-25T00:34:36;4.69;82.38
69084;SHT31;56185;48.526;9.044;2024-03-25T00:37:01;4.66;82.42
69084;SHT31;56185;48.526;9.044;2024-03-25T00:39:27;4.73;82.72
69084;SHT31;56185;48.526;9.044;2024-03-25T00:41:53;4.66;82.90
69084;SHT31;56185;48.526;9.044;2024-03-25T00:44:19;4.66;82.47
69084;SHT31;56185;48.526;9.044;2024-03-25T00:46:44;4.50;82.84
69084;SHT31;56185;48.526;9.044;2024-03-25T00:49:10;4.59;83.04
69084;SHT31;56185;48.526;9.044;2024-03-25T00:51:36;4.60;82.58
69084;SHT31;56185;48.526;9.044;2024-03-25T00:54:01;4.66;82.32
69084;SHT31;56185;48.526;9.044;2024-03-25T00:56:27;4.62;82.78
69084;SHT31;56185;48.526;9.044;2024-03-25T00:58:52;4.55;83.25
69084;SHT31;56185;48.526;9.044;2024-03-25T01:01:17;4.65;82.83
69084;SHT31;56185;48.526;9.044;2024-03-25T01:03:43;4.66;82.78
69084;SHT31;56185;48.526;9.044;2024-03-25T01:06:08;4.67;82.59
69084;SHT31;56185;48.526;9.044;2024-03-25T01:08:33;4.57;82.45
69084;SHT31;56185;48.526;9.044;2024-03-25T01:10:58;4.73;82.42
69084;SHT31;56185;48.526;9.044;2024-03-25T01:13:24;4.79;82.33
69084;SHT31;56185;48.526;9.044;2024-03-25T01:15:49;4.73;82.15
69084;SHT31;56185;48.526;9.044;2024-03-25T01:18:14;4.69;82.40
69084;SHT31;56185;48.526;9.044;2024-03-25T01:20:39;4.80;82.82
69084;SHT31;56185;48.526;9.044;2024-03-25T01:23:05;4.86;82.45
69084;SHT31;56185;48.526;9.044;2024-03-25T01:25:30;4.90;82.32
69084;SHT31;56185;48.526;9.044;2024-03-25T01:27:55;4.88;81.87
69084;SHT31;56185;48.526;9.044;2024-03-25T01:30:21;4.88;81.77
69084;SHT31;56185;48.526;9.044;2024-03-25T01:32:46;4.87;81.93
69084;SHT31;56185;48.526;9.044;2024-03-25T01:35:11;4.80;81.46
69084;SHT31;56185;48.526;9.044;2024-03-25T01:37:37;4.91;81.84
69084;SHT31;56185;48.526;9.044;2024-03-25T01:40:02;4.96;82.26
69084;SHT31;56185;48.526;9.044;2024-03-25T01:42:28;5.00;81.58
69084;SHT31;56185;48.526;9.044;2024-03-25T01:44:53;4.93;81.62
69084;SHT31;56185;48.526;9.044;2024-03-25T01:47:18;4.96;82.24
69084;SHT31;56185;48.526;9.044;2024-03-25T01:49:43;4.90;81.82
69084;SHT31;56185;48.526;9.044;2024-03-25T01:52:09;4.90;81.70
69084;SHT31;56185;48.526;9.044;2024-03-25T01:54:34;4.87;81.98
69084;SHT31;56185;48.526;9.044;2024-03-25T01:57:00;4.97;81.54
69084;SHT31;56185;48.526;9.044;2024-03-25T01:59:26;5.03;81.72
69084;SHT31;56185;48.526;9.044;2024-03-25T02:01:53;5.03;81.60
69084;SHT31;56185;48.526;9.044;2024-03-25T02:04:18;5.00;81.82
69084;SHT31;56185;48.526;9.044;2024-03-25T02:06:44;5.01;81.06
69084;SHT31;56185;48.526;9.044;2024-03-25T02:09:10;4.98;81.54
69084;SHT31;56185;48.526;9.044;2024-03-25T02:11:37;5.05;80.97
69084;SHT31;56185;48.526;9.044;2024-03-25T02:14:02;5.03;80.18
69084;SHT31;56185;48.526;9.044;2024-03-25T02:16:28;4.90;81.44
69084;SHT31;56185;48.526;9.044;2024-03-25T02:18:53;4.98;81.30
69084;SHT31;56185;48.526;9.044;2024-03-25T02:21:18;4.94;81.25
69084;SHT31;56185;48.526;9.044;2024-03-25T02:23:45;4.94;80.93
69084;SHT31;56185;48.526;9.044;2024-03-25T02:26:11;4.91;80.92
69084;SHT31;56185;48.526;9.044;2024-03-25T02:28:36;4.91;81.50
69084;SHT31;56185;48.526;9.044;2024-03-25T02:31:01;4.70;81.76
69084;SHT31;56185;48.526;9.044;2024-03-25T02:33:26;4.86;81.75
69084;SHT31;56185;48.526;9.044;2024-03-25T02:35:52;4.87;81.75
69084;SHT31;56185;48.526;9.044;2024-03-25T02:38:17;4.84;81.82
69084;SHT31;56185;48.526;9.044;2024-03-25T02:40:42;4.84;82.23
69084;SHT31;56185;48.526;9.044;2024-03-25T02:43:10;4.97;81.72
69084;SHT31;56185;48.526;9.044;2024-03-25T02:45:35;4.88;82.03
69084;SHT31;56185;48.526;9.044;2024-03-25T02:48:00;4.96;82.10
69084;SHT31;56185;48.526;9.044;2024-03-25T02:50:26;5.00;81.70
69084;SHT31;56185;48.526;9.044;2024-03-25T02:52:52;4.94;81.79
69084;SHT31;56185;48.526;9.044;2024-03-25T02:55:17;4.90;81.45
69084;SHT31;56185;48.526;9.044;2024-03-25T02:57:42;4.91;81.92
69084;SHT31;56185;48.526;9.044;2024-03-25T03:00:08;4.87;81.58
69084;SHT31;56185;48.526;9.044;2024-03-25T03:02:34;4.79;81.96
69084;SHT31;56185;48.526;9.044;2024-03-25T03:04:59;4.74;82.57
69084;SHT31;56185;48.526;9.044;2024-03-25T03:07:24;4.79;82.81
69084;SHT31;56185;48.526;9.044;2024-03-25T03:09:49;4.80;82.46
69084;SHT31;56185;48.526;9.044;2024-03-25T03:12:15;4.74;81.81
69084;SHT31;56185;48.526;9.044;2024-03-25T03:14:40;4.72;82.81
69084;SHT31;56185;48.526;9.044;2024-03-25T03:17:05;4.81;82.15
69084;SHT31;56185;48.526;9.044;2024-03-25T03:19:31;4.72;82.13
69084;SHT31;56185;48.526;9.044;2024-03-25T03:21:56;4.60;82.27
69084;SHT31;56185;48.526;9.044;2024-03-25T03:24:22;4.65;82.53
69084;SHT31;56185;48.526;9.044;2024-03-25T03:26:47;4.44;81.90
69084;SHT31;56185;48.526;9.044;2024-03-25T03:29:12;4.50;82.47
69084;SHT31;56185;48.526;9.044;2024-03-25T03:31:37;4.62;81.74
69084;SHT31;56185;48.526;9.044;2024-03-25T03:34:03;4.52;82.35
69084;SHT31;56185;48.526;9.044;2024-03-25T03:36:28;4.55;81.77
69084;SHT31;56185;48.526;9.044;2024-03-25T03:38:54;4.60;81.67
69084;SHT31;56185;48.526;9.044;2024-03-25T03:41:19;4.65;82.14
69084;SHT31;56185;48.526;9.044;2024-03-25T03:43:44;4.66;82.01
69084;SHT31;56185;48.526;9.044;2024-03-25T03:46:10;4.74;81.85
69084;SHT31;56185;48.526;9.044;2024-03-25T03:48:35;4.74;81.13
69084;SHT31;56185;48.526;9.044;2024-03-25T03:51:00;4.69;81.22
69084;SHT31;56185;48.526;9.044;2024-03-25T03:53:25;4.57;81.46
69084;SHT31;56185;48.526;9.044;2024-03-25T03:55:58;4.57;82.22
69084;SHT31;56185;48.526;9.044;2024-03-25T03:58:24;4.56;82.34
69084;SHT31;56185;48.526;9.044;2024-03-25T04:00:51;4.60;81.83
69084;SHT31;56185;48.526;9.044;2024-03-25T04:03:16;4.66;81.96
69084;SHT31;56185;48.526;9.044;2024-03-25T04:05:42;4.69;81.50
69084;SHT31;56185;48.526;9.044;2024-03-25T04:08:07;4.67;81.33
69084;SHT31;56185;48.526;9.044;2024-03-25T04:10:32;4.60;81.10
69084;SHT31;56185;48.526;9.044;2024-03-25T04:12:57;4.60;81.52
69084;SHT31;56185;48.526;9.044;2024-03-25T04:15:23;4.56;81.41
69084;SHT31;56185;48.526;9.044;2024-03-25T04:17:48;4.45;81.67
69084;SHT31;56185;48.526;9.044;2024-03-25T04:20:14;4.55;81.25
69084;SHT31;56185;48.526;9.044;2024-03-25T04:22:45;4.52;81.01
69084;SHT31;56185;48.526;9.044;2024-03-25T04:25:11;4.53;81.53
69084;SHT31;56185;48.526;9.044;2024-03-25T04:27:43;4.46;81.26
69084;SHT31;56185;48.526;9.044;2024-03-25T04:30:09;4.44;80.85
69084;SHT31;56185;48.526;9.044;2024-03-25T04:32:35;4.41;80.74
69084;SHT31;56185;48.526;9.044;2024-03-25T04:35:01;4.41;80.79
69084;SHT31;56185;48.526;9.044;2024-03-25T04:37:27;4.41;80.60
69084;SHT31;56185;48.526;9.044;2024-03-25T04:39:52;4.34;81.12
69084;SHT31;56185;48.526;9.044;2024-03-25T04:42:17;4.38;80.97
69084;SHT31;56185;48.526;9.044;2024-03-25T04:44:42;4.39;81.10
69084;SHT31;56185;48.526;9.044;2024-03-25T04:47:08;4.36;81.22
69084;SHT31;56185;48.526;9.044;2024-03-25T04:49:33;4.35;81.08
69084;SHT31;56185;48.526;9.044;2024-03-25T04:51:58;4.35;80.17
69084;SHT31;56185;48.526;9.044;2024-03-25T04:54:23;4.25;80.86
69084;SHT31;56185;48.526;9.044;2024-03-25T04:56:49;4.26;81.15
69084;SHT31;56185;48.526;9.044;2024-03-25T04:59:14;4.44;80.49
69084;SHT31;56185;48.526;9.044;2024-03-25T05:01:39;4.49;80.37
69084;SHT31;56185;48.526;9.044;2024-03-25T05:04:04;4.48;80.53
69084;SHT31;56185;48.526;9.044;2024-03-25T05:06:30;4.44;81.07
69084;SHT31;56185;48.526;9.044;2024-03-25T05:08:55;4.36;80.33
69084;SHT31;56185;48.526;9.044;2024-03-25T05:11:20;4.29;80.92
69084;SHT31;56185;48.526;9.044;2024-03-25T05:13:45;4.34;80.56
69084;SHT31;56185;48.526;9.044;2024-03-25T05:16:10;4.29;80.95
69084;SHT31;56185;48.526;9.044;2024-03-25T05:18:36;4.41;80.69
69084;SHT31;56185;48.526;9.044;2024-03-25T05:21:01;4.38;80.61
69084;SHT31;56185;48.526;9.044;2024-03-25T05:23:27;4.34;79.93
69084;SHT31;56185;48.526;9.044;2024-03-25T05:25:52;4.34;80.32
69084;SHT31;56185;48.526;9.044;2024-03-25T05:28:17;4.24;79.97
69084;SHT31;56185;48.526;9.044;2024-03-25T05:30:42;4.24;80.73
69084;SHT31;56185;48.526;9.044;2024-03-25T05:33:08;4.24;80.68
69084;SHT31;56185;48.526;9.044;2024-03-25T05:35:33;4.25;80.41
69084;SHT31;56185;48.526;9.044;2024-03-25T05:37:58;4.02;80.77
69084;SHT31;56185;48.526;9.044;2024-03-25T05:40:23;4.19;81.06
69084;SHT31;56185;48.526;9.044;2024-03-25T05:42:49;4.07;80.01
69084;SHT31;56185;48.526;9.044;2024-03-25T05:45:14;4.29;80.29
69084;SHT31;56185;48.526;9.044;2024-03-25T05:47:39;4.12;79.72
69084;SHT31;56185;48.526;9.044;2024-03-25T05:50:05;4.18;80.24
69084;SHT31;56185;48.526;9.044;2024-03-25T05:52:30;4.21;79.89
69084;SHT31;56185;48.526;9.044;2024-03-25T05:54:56;4.31;80.16
69084;SHT31;56185;48.526;9.044;2024-03-25T05:57:21;4.35;80.26
69084;SHT31;56185;48.526;9.044;2024-03-25T05:59:46;4.32;79.75
69084;SHT31;56185;48.526;9.044;2024-03-25T06:02:11;4.45;78.92
69084;SHT31;56185;48.526;9.044;2024-03-25T06:04:36;4.50;79.48
69084;SHT31;56185;48.526;9.044;2024-03-25T06:07:02;4.48;78.95
69084;SHT31;56185;48.526;9.044;2024-03-25T06:09:27;4.50;78.64
69084;SHT31;56185;48.526;9.044;2024-03-25T06:11:52;4.60;80.07
69084;SHT31;56185;48.526;9.044;2024-03-25T06:14:18;4.65;79.16
69084;SHT31;56185;48.526;9.044;2024-03-25T06:16:43;4.67;79.01
69084;SHT31;56185;48.526;9.044;2024-03-25T06:19:08;4.70;78.25
69084;SHT31;56185;48.526;9.044;2024-03-25T06:21:33;4.60;79.32
69084;SHT31;56185;48.526;9.044;2024-03-25T06:23:58;4.60;80.36
69084;SHT31;56185;48.526;9.044;2024-03-25T06:26:24;4.77;79.41
69084;SHT31;56185;48.526;9.044;2024-03-25T06:28:49;4.80;78.38
69084;SHT31;56185;48.526;9.044;2024-03-25T06:31:14;4.65;78.46
69084;SHT31;56185;48.526;9.044;2024-03-25T06:33:39;4.72;78.33
69084;SHT31;56185;48.526;9.044;2024-03-25T06:36:05;4.81;78.63
69084;SHT31;56185;48.526;9.044;2024-03-25T06:38:30;4.91;78.30
69084;SHT31;56185;48.526;9.044;2024-03-25T06:40:55;4.96;77.86
69084;SHT31;56185;48.526;9.044;2024-03-25T06:43:20;5.03;78.17
69084;SHT31;56185;48.526;9.044;2024-03-25T06:45:46;4.96;77.30
69084;SHT31;56185;48.526;9.044;2024-03-25T06:48:11;5.05;77.92
69084;SHT31;56185;48.526;9.044;2024-03-25T06:50:36;4.96;77.90
69084;SHT31;56185;48.526;9.044;2024-03-25T06:53:01;5.07;77.32
69084;SHT31;56185;48.526;9.044;2024-03-25T06:55:27;5.08;76.74
69084;SHT31;56185;48.526;9.044;2024-03-25T06:57:52;4.97;77.23
69084;SHT31;56185;48.526;9.044;2024-03-25T07:00:17;5.00;77.71
69084;SHT31;56185;48.526;9.044;2024-03-25T07:02:43;5.07;78.03
69084;SHT31;56185;48.526;9.044;2024-03-25T07:05:08;5.07;77.10
69084;SHT31;56185;48.526;9.044;2024-03-25T07:07:34;5.23;77.20
69084;SHT31;56185;48.526;9.044;2024-03-25T07:09:59;5.24;76.82
69084;SHT31;56185;48.526;9.044;2024-03-25T07:12:25;5.15;76.49
69084;SHT31;56185;48.526;9.044;2024-03-25T07:14:50;4.67;77.67
69084;SHT31;56185;48.526;9.044;2024-03-25T07:17:15;4.93;77.93
69084;SHT31;56185;48.526;9.044;2024-03-25T07:19:41;5.03;77.79
69084;SHT31;56185;48.526;9.044;2024-03-25T07:22:06;5.10;76.61
69084;SHT31;56185;48.526;9.044;2024-03-25T07:24:31;5.27;77.27
69084;SHT31;56185;48.526;9.044;2024-03-25T07:26:56;5.23;76.89
69084;SHT31;56185;48.526;9.044;2024-03-25T07:29:22;5.27;77.17
69084;SHT31;56185;48.526;9.044;2024-03-25T07:31:47;5.42;77.11
69084;SHT31;56185;48.526;9.044;2024-03-25T07:34:12;5.62;76.91
69084;SHT31;56185;48.526;9.044;2024-03-25T07:36:38;5.69;76.02
69084;SHT31;56185;48.526;9.044;2024-03-25T07:39:03;5.90;76.28
69084;SHT31;56185;48.526;9.044;2024-03-25T07:41:28;5.89;76.12
69084;SHT31;56185;48.526;9.044;2024-03-25T07:43:53;5.85;75.43
69084;SHT31;56185;48.526;9.044;2024-03-25T07:46:18;5.89;75.68
69084;SHT31;56185;48.526;9.044;2024-03-25T07:48:44;6.04;75.80
69084;SHT31;56185;48.526;9.044;2024-03-25T07:51:09;6.14;75.82
69084;SHT31;56185;48.526;9.044;2024-03-25T07:53:34;6.27;74.87
69084;SHT31;56185;48.526;9.044;2024-03-25T07:55:59;5.92;74.92
69084;SHT31;56185;48.526;9.044;2024-03-25T07:58:25;6.35;75.36
69084;SHT31;56185;48.526;9.044;2024-03-25T08:00:50;6.38;74.43
69084;SHT31;56185;48.526;9.044;2024-03-25T08:03:15;6.74;74.78
69084;SHT31;56185;48.526;9.044;2024-03-25T08:05:40;6.86;74.51
69084;SHT31;56185;48.526;9.044;2024-03-25T08:08:06;6.91;74.53
69084;SHT31;56185;48.526;9.044;2024-03-25T08:10:31;7.12;72.70
69084;SHT31;56185;48.526;9.044;2024-03-25T08:12:56;7.24;72.98
69084;SHT31;56185;48.526;9.044;2024-03-25T08:15:21;7.23;72.01
69084;SHT31;56185;48.526;9.044;2024-03-25T08:17:47;7.35;72.43
69084;SHT31;56185;48.526;9.044;2024-03-25T08:20:12;7.50;71.65
69084;SHT31;56185;48.526;9.044;2024-03-25T08:22:37;7.50;70.80
69084;SHT31;56185;48.526;9.044;2024-03-25T08:25:03;7.57;71.66
69084;SHT31;56185;48.526;9.044;2024-03-25T08:27:28;7.65;71.67
69084;SHT31;56185;48.526;9.044;2024-03-25T08:29:53;7.72;71.35
69084;SHT31;56185;48.526;9.044;2024-03-25T08:32:18;7.75;70.51
69084;SHT31;56185;48.526;9.044;2024-03-25T08:34:44;7.64;70.59
69084;SHT31;56185;48.526;9.044;2024-03-25T08:37:09;7.82;70.52
69084;SHT31;56185;48.526;9.044;2024-03-25T08:39:34;7.78;70.42
69084;SHT31;56185;48.526;9.044;2024-03-25T08:41:59;7.89;70.27
69084;SHT31;56185;48.526;9.044;2024-03-25T08:44:25;8.02;69.66
69084;SHT31;56185;48.526;9.044;2024-03-25T08:46:50;8.23;69.22
69084;SHT31;56185;48.526;9.044;2024-03-25T08:49:15;8.23;68.46
69084;SHT31;56185;48.526;9.044;2024-03-25T08:51:40;8.32;68.10
69084;SHT31;56185;48.526;9.044;2024-03-25T08:54:06;8.46;67.56
69084;SHT31;56185;48.526;9.044;2024-03-25T08:56:31;8.46;67.13
69084;SHT31;56185;48.526;9.044;2024-03-25T08:58:56;8.57;67.30
69084;SHT31;56185;48.526;9.044;2024-03-25T09:01:21;8.57;66.11
69084;SHT31;56185;48.526;9.044;2024-03-25T09:03:47;8.59;66.13
69084;SHT31;56185;48.526;9.044;2024-03-25T09:06:12;8.53;65.70
69084;SHT31;56185;48.526;9.044;2024-03-25T09:08:37;8.67;65.69
69084;SHT31;56185;48.526;9.044;2024-03-25T09:11:03;8.80;66.01
69084;SHT31;56185;48.526;9.044;2024-03-25T09:13:29;8.85;65.55
69084;SHT31;56185;48.526;9.044;2024-03-25T09:15:54;8.94;64.94
69084;SHT31;56185;48.526;9.044;2024-03-25T09:18:20;8.97;65.38
69084;SHT31;56185;48.526;9.044;2024-03-25T09:20:45;9.19;65.53
69084;SHT31;56185;48.526;9.044;2024-03-25T09:23:11;9.39;63.63
69084;SHT31;56185;48.526;9.044;2024-03-25T09:25:36;9.50;62.82
69084;SHT31;56185;48.526;9.044;2024-03-25T09:28:01;9.62;62.48
69084;SHT31;56185;48.526;9.044;2024-03-25T09:30:26;9.63;60.88
69084;SHT31;56185;48.526;9.044;2024-03-25T09:32:52;9.73;60.98
69084;SHT31;56185;48.526;9.044;2024-03-25T09:35:17;9.87;61.15
69084;SHT31;56185;48.526;9.044;2024-03-25T09:37:42;9.89;60.11
69084;SHT31;56185;48.526;9.044;2024-03-25T09:40:08;9.66;59.03
69084;SHT31;56185;48.526;9.044;2024-03-25T09:42:49;9.66;54.94
69084;SHT31;56185;48.526;9.044;2024-03-25T09:45:17;9.80;55.35
69084;SHT31;56185;48.526;9.044;2024-03-25T09:47:45;10.05;56.17
69084;SHT31;56185;48.526;9.044;2024-03-25T09:50:12;10.21;54.25
69084;SHT31;56185;48.526;9.044;2024-03-25T09:52:37;10.15;50.02
69084;SHT31;56185;48.526;9.044;2024-03-25T09:55:03;10.15;55.56
69084;SHT31;56185;48.526;9.044;2024-03-25T09:57:28;10.17;53.95
69084;SHT31;56185;48.526;9.044;2024-03-25T09:59:54;10.35;50.96
69084;SHT31;56185;48.526;9.044;2024-03-25T10:02:19;10.53;50.89
69084;SHT31;56185;48.526;9.044;2024-03-25T10:04:48;10.73;52.33
69084;SHT31;56185;48.526;9.044;2024-03-25T10:07:21;10.75;47.28
69084;SHT31;56185;48.526;9.044;2024-03-25T10:09:47;10.80;46.50
69084;SHT31;56185;48.526;9.044;2024-03-25T10:12:12;10.89;47.69
69084;SHT31;56185;48.526;9.044;2024-03-25T10:14:39;10.92;47.40
69084;SHT31;56185;48.526;9.044;2024-03-25T10:17:05;11.17;48.69
69084;SHT31;56185;48.526;9.044;2024-03-25T10:19:33;11.35;48.56
69084;SHT31;56185;48.526;9.044;2024-03-25T10:22:05;11.40;49.63
69084;SHT31;56185;48.526;9.044;2024-03-25T10:24:44;11.75;49.32
69084;SHT31;56185;48.526;9.044;2024-03-25T10:27:22;11.77;49.70
69084;SHT31;56185;48.526;9.044;2024-03-25T10:29:48;11.69;49.08
69084;SHT31;56185;48.526;9.044;2024-03-25T10:32:14;11.81;50.01
69084;SHT31;56185;48.526;9.044;2024-03-25T10:34:39;11.82;47.47
69084;SHT31;56185;48.526;9.044;2024-03-25T10:37:08;11.78;50.47
69084;SHT31;56185;48.526;9.044;2024-03-25T10:39:43;11.72;46.68
69084;SHT31;56185;48.526;9.044;2024-03-25T10:42:25;11.65;41.12
69084;SHT31;56185;48.526;9.044;2024-03-25T10:44:50;11.47;40.61
69084;SHT31;56185;48.526;9.044;2024-03-25T10:47:39;11.54;41.24
69084;SHT31;56185;48.526;9.044;2024-03-25T10:50:08;11.72;41.96
69084;SHT31;56185;48.526;9.044;2024-03-25T10:52:39;11.67;41.94
69084;SHT31;56185;48.526;9.044;2024-03-25T10:55:37;11.83;42.12
69084;SHT31;56185;48.526;9.044;2024-03-25T10:58:07;11.93;40.86
69084;SHT31;56185;48.526;9.044;2024-03-25T11:00:35;11.92;43.81
69084;SHT31;56185;48.526;9.044;2024-03-25T11:03:04;12.12;44.53
69084;SHT31;56185;48.526;9.044;2024-03-25T11:05:31;12.33;41.82
69084;SHT31;56185;48.526;9.044;2024-03-25T11:07:56;12.48;41.56
69084;SHT31;56185;48.526;9.044;2024-03-25T11:10:29;12.61;40.48
69084;SHT31;56185;48.526;9.044;2024-03-25T11:12:54;12.68;42.12
69084;SHT31;56185;48.526;9.044;2024-03-25T11:15:20;12.57;38.38
69084;SHT31;56185;48.526;9.044;2024-03-25T11:17:49;12.63;37.71
69084;SHT31;56185;48.526;9.044;2024-03-25T11:20:15;12.77;38.81
69084;SHT31;56185;48.526;9.044;2024-03-25T11:22:51;12.88;37.10
69084;SHT31;56185;48.526;9.044;2024-03-25T11:25:17;12.74;37.59
69084;SHT31;56185;48.526;9.044;2024-03-25T11:27:44;12.88;40.22
69084;SHT31;56185;48.526;9.044;2024-03-25T11:30:10;12.53;36.83
69084;SHT31;56185;48.526;9.044;2024-03-25T11:32:49;12.91;38.28
69084;SHT31;56185;48.526;9.044;2024-03-25T11:35:16;13.05;37.37
69084;SHT31;56185;48.526;9.044;2024-03-25T11:37:42;13.18;39.46
69084;SHT31;56185;48.526;9.044;2024-03-25T11:40:08;13.32;37.97
69084;SHT31;56185;48.526;9.044;2024-03-25T11:42:33;13.28;36.33
69084;SHT31;56185;48.526;9.044;2024-03-25T11:45:00;13.16;37.23
69084;SHT31;56185;48.526;9.044;2024-03-25T11:47:34;13.18;37.28
69084;SHT31;56185;48.526;9.044;2024-03-25T11:50:06;13.46;38.33
69084;SHT31;56185;48.526;9.044;2024-03-25T11:52:32;13.57;37.85
69084;SHT31;56185;48.526;9.044;2024-03-25T11:54:59;13.59;36.53
69084;SHT31;56185;48.526;9.044;2024-03-25T11:57:27;13.59;36.73
69084;SHT31;56185;48.526;9.044;2024-03-25T12:00:12;13.74;37.19
69084;SHT31;56185;48.526;9.044;2024-03-25T12:02:38;13.81;37.25
69084;SHT31;56185;48.526;9.044;2024-03-25T12:05:11;13.84;39.15
69084;SHT31;56185;48.526;9.044;2024-03-25T12:07:40;13.88;39.08
69084;SHT31;56185;48.526;9.044;2024-03-25T12:10:07;13.80;39.86
69084;SHT31;56185;48.526;9.044;2024-03-25T12:12:33;13.93;39.30
69084;SHT31;56185;48.526;9.044;2024-03-25T12:14:58;13.87;37.28
69084;SHT31;56185;48.526;9.044;2024-03-25T12:17:24;14.14;39.06
69084;SHT31;56185;48.526;9.044;2024-03-25T12:20:06;14.34;37.76
69084;SHT31;56185;48.526;9.044;2024-03-25T12:22:32;14.52;38.27
69084;SHT31;56185;48.526;9.044;2024-03-25T12:25:01;14.42;36.24
69084;SHT31;56185;48.526;9.044;2024-03-25T12:27:28;14.22;36.20
69084;SHT31;56185;48.526;9.044;2024-03-25T12:30:01;14.44;37.08
69084;SHT31;56185;48.526;9.044;2024-03-25T12:32:43;14.35;37.48
69084;SHT31;56185;48.526;9.044;2024-03-25T12:35:09;14.34;38.12
69084;SHT31;56185;48.526;9.044;2024-03-25T12:37:39;14.24;36.46
69084;SHT31;56185;48.526;9.044;2024-03-25T12:40:06;14.15;38.29
69084;SHT31;56185;48.526;9.044;2024-03-25T12:42:32;14.18;37.02
69084;SHT31;56185;48.526;9.044;2024-03-25T12:44:57;14.29;38.11
69084;SHT31;56185;48.526;9.044;2024-03-25T12:47:23;14.39;36.30
69084;SHT31;56185;48.526;9.044;2024-03-25T12:49:48;14.49;35.91
69084;SHT31;56185;48.526;9.044;2024-03-25T12:52:13;14.66;36.08
69084;SHT31;56185;48.526;9.044;2024-03-25T12:54:38;14.76;36.44
69084;SHT31;56185;48.526;9.044;2024-03-25T12:57:04;14.66;35.35
69084;SHT31;56185;48.526;9.044;2024-03-25T12:59:29;14.85;35.94
69084;SHT31;56185;48.526;9.044;2024-03-25T13:01:55;14.80;36.97
69084;SHT31;56185;48.526;9.044;2024-03-25T13:04:20;14.87;36.43
69084;SHT31;56185;48.526;9.044;2024-03-25T13:06:46;14.79;35.85
69084;SHT31;56185;48.526;9.044;2024-03-25T13:09:11;14.68;36.16
69084;SHT31;56185;48.526;9.044;2024-03-25T13:11:36;14.48;37.19
69084;SHT31;56185;48.526;9.044;2024-03-25T13:14:03;14.59;36.56
69084;SHT31;56185;48.526;9.044;2024-03-25T13:16:29;14.59;36.53
69084;SHT31;56185;48.526;9.044;2024-03-25T13:18:54;14.44;34.84
69084;SHT31;56185;48.526;9.044;2024-03-25T13:21:19;14.55;35.04
69084;SHT31;56185;48.526;9.044;2024-03-25T13:23:45;14.62;33.79
69084;SHT31;56185;48.526;9.044;2024-03-25T13:26:10;14.61;35.06
69084;SHT31;56185;48.526;9.044;2024-03-25T13:28:35;14.93;35.36
69084;SHT31;56185;48.526;9.044;2024-03-25T13:31:00;15.08;34.46
69084;SHT31;56185;48.526;9.044;2024-03-25T13:33:26;15.19;35.54
69084;SHT31;56185;48.526;9.044;2024-03-25T13:35:51;14.90;32.83
69084;SHT31;56185;48.526;9.044;2024-03-25T13:38:16;15.04;35.34
69084;SHT31;56185;48.526;9.044;2024-03-25T13:40:41;15.07;32.60
69084;SHT31;56185;48.526;9.044;2024-03-25T13:43:06;15.00;33.03
69084;SHT31;56185;48.526;9.044;2024-03-25T13:45:32;14.80;32.35
69084;SHT31;56185;48.526;9.044;2024-03-25T13:47:57;14.76;35.32
69084;SHT31;56185;48.526;9.044;2024-03-25T13:50:22;14.79;33.20
69084;SHT31;56185;48.526;9.044;2024-03-25T13:52:47;14.92;35.08
69084;SHT31;56185;48.526;9.044;2024-03-25T13:55:13;15.16;33.57
69084;SHT31;56185;48.526;9.044;2024-03-25T13:57:38;15.33;34.18
69084;SHT31;56185;48.526;9.044;2024-03-25T14:00:04;15.51;32.24
69084;SHT31;56185;48.526;9.044;2024-03-25T14:02:29;15.68;33.62
69084;SHT31;56185;48.526;9.044;2024-03-25T14:04:54;15.65;34.09
69084;SHT31;56185;48.526;9.044;2024-03-25T14:07:20;15.68;34.42
69084;SHT31;56185;48.526;9.044;2024-03-25T14:09:45;15.89;33.44
69084;SHT31;56185;48.526;9.044;2024-03-25T14:12:10;15.50;32.05
69084;SHT31;56185;48.526;9.044;2024-03-25T14:14:35;15.61;34.04
69084;SHT31;56185;48.526;9.044;2024-03-25T14:17:01;15.55;33.05
69084;SHT31;56185;48.526;9.044;2024-03-25T14:19:26;15.47;33.49
69084;SHT31;56185;48.526;9.044;2024-03-25T14:21:51;15.78;34.47
69084;SHT31;56185;48.526;9.044;2024-03-25T14:24:16;15.82;34.04
69084;SHT31;56185;48.526;9.044;2024-03-25T14:26:42;15.62;34.33
69084;SHT31;56185;48.526;9.044;2024-03-25T14:29:08;15.54;34.43
69084;SHT31;56185;48.526;9.044;2024-03-25T14:31:33;15.54;34.96
69084;SHT31;56185;48.526;9.044;2024-03-25T14:33:58;15.58;35.14
69084;SHT31;56185;48.526;9.044;2024-03-25T14:36:24;15.69;35.51
69084;SHT31;56185;48.526;9.044;2024-03-25T14:38:51;15.85;35.72
69084;SHT31;56185;48.526;9.044;2024-03-25T14:41:20;15.83;35.71
69084;SHT31;56185;48.526;9.044;2024-03-25T14:43:46;15.72;35.06
69084;SHT31;56185;48.526;9.044;2024-03-25T14:46:11;15.85;33.10
69084;SHT31;56185;48.526;9.044;2024-03-25T14:48:36;15.93;35.31
69084;SHT31;56185;48.526;9.044;2024-03-25T14:51:02;16.12;35.41
69084;SHT31;56185;48.526;9.044;2024-03-25T14:53:27;16.08;34.00
69084;SHT31;56185;48.526;9.044;2024-03-25T14:55:52;15.85;33.59
69084;SHT31;56185;48.526;9.044;2024-03-25T14:58:17;15.57;34.39
69084;SHT31;56185;48.526;9.044;2024-03-25T15:00:43;15.59;36.25
69084;SHT31;56185;48.526;9.044;2024-03-25T15:03:08;15.78;36.63
69084;SHT31;56185;48.526;9.044;2024-03-25T15:05:33;15.88;35.15
69084;SHT31;56185;48.526;9.044;2024-03-25T15:07:58;15.92;35.37
69084;SHT31;56185;48.526;9.044;2024-03-25T15:10:24;15.77;36.29
69084;SHT31;56185;48.526;9.044;2024-03-25T15:12:49;15.91;35.33
69084;SHT31;56185;48.526;9.044;2024-03-25T15:15:14;15.48;32.88
69084;SHT31;56185;48.526;9.044;2024-03-25T15:17:39;15.34;33.32
69084;SHT31;56185;48.526;9.044;2024-03-25T15:20:05;15.40;33.39
69084;SHT31;56185;48.526;9.044;2024-03-25T15:22:31;15.51;32.31
69084;SHT31;56185;48.526;9.044;2024-03-25T15:24:56;15.50;30.25
69084;SHT31;56185;48.526;9.044;2024-03-25T15:27:21;15.54;31.41
69084;SHT31;56185;48.526;9.044;2024-03-25T15:29:47;15.58;29.71
69084;SHT31;56185;48.526;9.044;2024-03-25T15:32:12;15.71;30.93